createdAt,value
2023-11-09T00:00:38.734Z,101428.09
2023-11-09T00:03:07.074Z,101415.94
2023-11-09T00:05:34.334Z,101407.75
2023-11-09T00:08:01.621Z,101402.56
2023-11-09T00:10:28.610Z,101399.31
2023-11-09T00:12:59.656Z,101396.66
2023-11-09T00:15:27.772Z,101389.47
2023-11-09T00:17:55.053Z,101390.50
2023-11-09T00:20:22.962Z,101384.31
2023-11-09T00:25:19.662Z,101378.50
2023-11-09T00:27:46.634Z,101366.09
2023-11-09T00:30:13.790Z,101366.53
2023-11-09T00:32:40.677Z,101368.09
2023-11-09T00:35:09.890Z,101358.25
2023-11-09T00:37:38.712Z,101357.72
2023-11-09T00:40:12.643Z,101352.25
2023-11-09T00:42:40.112Z,101357.25
2023-11-09T00:45:08.221Z,101354.09
2023-11-09T00:47:35.828Z,101354.88
2023-11-09T00:50:02.775Z,101348.16
2023-11-09T00:52:29.883Z,101355.22
2023-11-09T00:54:56.987Z,101360.56
2023-11-09T00:57:26.808Z,101368.81
2023-11-09T00:59:53.660Z,101362.97
2023-11-09T01:02:20.454Z,101368.47
2023-11-09T01:04:47.382Z,101370.53
2023-11-09T01:07:14.306Z,101368.50
2023-11-09T01:09:41.316Z,101362.91
2023-11-09T01:12:09.188Z,101365.25
2023-11-09T01:14:36.138Z,101365.03
2023-11-09T01:17:03.077Z,101368.88
2023-11-09T01:19:30.108Z,101362.75
2023-11-09T01:21:57.227Z,101354.53
2023-11-09T01:24:24.107Z,101356.66
2023-11-09T01:26:50.995Z,101357.31
2023-11-09T01:29:19.984Z,101351.69
2023-11-09T01:31:46.858Z,101340.00
2023-11-09T01:34:15.605Z,101337.22
2023-11-09T01:36:43.692Z,101337.03
2023-11-09T01:39:14.024Z,101327.84
2023-11-09T01:41:43.628Z,101321.38
2023-11-09T01:44:11.189Z,101320.88
2023-11-09T01:46:43.019Z,101315.72
2023-11-09T01:49:11.938Z,101312.75
2023-11-09T01:51:40.368Z,101305.66
2023-11-09T01:54:08.639Z,101302.88
2023-11-09T01:56:36.718Z,101301.50
2023-11-09T01:59:06.960Z,101291.41
2023-11-09T02:01:35.207Z,101283.25
2023-11-09T02:04:03.104Z,101294.25
2023-11-09T02:06:30.920Z,101288.22
2023-11-09T02:08:59.568Z,101293.38
2023-11-09T02:11:26.807Z,101296.56
2023-11-09T02:13:54.257Z,101292.41
2023-11-09T02:16:21.634Z,101284.66
2023-11-09T02:18:48.918Z,101279.00
2023-11-09T02:21:18.787Z,101277.09
2023-11-09T02:23:49.428Z,101273.84
2023-11-09T02:26:17.372Z,101263.34
2023-11-09T02:28:50.469Z,101258.19
2023-11-09T02:31:18.957Z,101255.19
2023-11-09T02:33:45.908Z,101253.19
2023-11-09T02:36:12.928Z,101254.63
2023-11-09T02:38:39.808Z,101240.94
2023-11-09T02:41:09.344Z,101236.41
2023-11-09T02:43:41.492Z,101229.66
2023-11-09T02:46:11.577Z,101224.97
2023-11-09T02:48:39.448Z,101219.75
2023-11-09T02:51:10.399Z,101210.56
2023-11-09T02:53:38.563Z,101205.50
2023-11-09T02:56:09.208Z,101202.38
2023-11-09T02:58:36.171Z,101203.66
2023-11-09T03:01:03.117Z,101207.44
2023-11-09T03:03:30.258Z,101201.59
2023-11-09T03:05:58.505Z,101186.28
2023-11-09T03:08:28.006Z,101183.72
2023-11-09T03:10:55.251Z,101177.38
2023-11-09T03:13:22.951Z,101181.88
2023-11-09T03:15:50.866Z,101180.16
2023-11-09T03:18:18.639Z,101166.81
2023-11-09T03:20:45.554Z,101162.78
2023-11-09T03:23:13.146Z,101154.75
2023-11-09T03:25:39.940Z,101154.41
2023-11-09T03:28:06.866Z,101158.53
2023-11-09T03:30:35.261Z,101148.97
2023-11-09T03:33:02.577Z,101142.03
2023-11-09T03:35:29.402Z,101135.72
2023-11-09T03:37:56.207Z,101139.00
2023-11-09T03:40:23.189Z,101137.63
2023-11-09T03:42:49.984Z,101129.91
2023-11-09T03:45:16.909Z,101128.91
2023-11-09T03:47:44.427Z,101126.31
2023-11-09T03:50:14.371Z,101118.41
2023-11-09T03:52:41.417Z,101118.50
2023-11-09T03:55:09.231Z,101127.69
2023-11-09T03:57:37.100Z,101111.94
2023-11-09T04:00:09.633Z,101107.06
2023-11-09T04:02:40.449Z,101107.16
2023-11-09T04:05:10.925Z,101107.78
2023-11-09T04:07:45.891Z,101100.25
2023-11-09T04:10:15.482Z,101103.56
2023-11-09T04:12:43.729Z,101102.19
2023-11-09T04:15:10.790Z,101109.44
2023-11-09T04:17:38.020Z,101103.50
2023-11-09T04:20:08.067Z,101110.09
2023-11-09T04:22:35.576Z,101114.06
2023-11-09T04:25:03.308Z,101112.78
2023-11-09T04:27:30.552Z,101115.25
2023-11-09T04:29:59.421Z,101116.09
2023-11-09T04:32:27.222Z,101113.88
2023-11-09T04:34:54.558Z,101108.16
2023-11-09T04:37:23.247Z,101109.72
2023-11-09T04:39:53.274Z,101113.97
2023-11-09T04:42:20.938Z,101121.78
2023-11-09T04:44:48.114Z,101124.84
2023-11-09T04:47:15.990Z,101137.72
2023-11-09T04:49:51.170Z,101148.88
2023-11-09T04:52:20.643Z,101142.88
2023-11-09T04:54:57.952Z,101134.88
2023-11-09T04:57:49.389Z,101137.44
2023-11-09T05:00:35.085Z,101143.16
2023-11-09T05:03:20.416Z,101138.00
2023-11-09T05:06:10.113Z,101138.19
2023-11-09T05:08:37.321Z,101140.03
2023-11-09T05:11:04.898Z,101145.72
2023-11-09T05:13:31.892Z,101156.06
2023-11-09T05:15:58.860Z,101152.34
2023-11-09T05:18:26.228Z,101141.66
2023-11-09T05:20:53.510Z,101137.38
2023-11-09T05:23:20.396Z,101131.28
2023-11-09T05:25:47.246Z,101125.84
2023-11-09T05:28:14.110Z,101118.69
2023-11-09T05:30:40.892Z,101112.88
2023-11-09T05:33:07.679Z,101102.47
2023-11-09T05:35:35.029Z,101105.84
2023-11-09T05:38:01.968Z,101111.59
2023-11-09T05:40:28.767Z,101107.53
2023-11-09T05:42:55.601Z,101093.56
2023-11-09T05:45:22.445Z,101073.66
2023-11-09T05:47:50.010Z,101075.59
2023-11-09T05:50:16.852Z,101082.69
2023-11-09T05:52:43.790Z,101092.16
2023-11-09T05:55:11.652Z,101094.28
2023-11-09T05:57:38.649Z,101091.22
2023-11-09T06:00:07.114Z,101065.94
2023-11-09T06:02:33.996Z,101068.97
2023-11-09T06:05:00.924Z,101065.56
2023-11-09T06:07:29.013Z,101068.44
2023-11-09T06:09:55.886Z,101060.78
2023-11-09T06:12:23.060Z,101061.03
2023-11-09T06:14:50.668Z,101068.84
2023-11-09T06:17:17.510Z,101063.63
2023-11-09T06:19:44.393Z,101065.38
2023-11-09T06:22:11.265Z,101069.53
2023-11-09T06:24:38.958Z,101070.16
2023-11-09T06:27:08.250Z,101069.34
2023-11-09T06:29:35.241Z,101065.47
2023-11-09T06:32:02.128Z,101070.88
2023-11-09T06:34:28.985Z,101074.69
2023-11-09T06:36:56.907Z,101071.88
2023-11-09T06:39:24.095Z,101082.75
2023-11-09T06:41:51.070Z,101083.31
2023-11-09T06:44:18.830Z,101074.94
2023-11-09T06:46:46.006Z,101075.69
2023-11-09T06:49:13.312Z,101067.69
2023-11-09T06:51:40.250Z,101068.78
2023-11-09T06:54:07.318Z,101062.06
2023-11-09T06:56:35.765Z,101073.19
2023-11-09T06:59:04.490Z,101075.50
2023-11-09T07:01:36.476Z,101079.47
2023-11-09T07:04:03.734Z,101091.56
2023-11-09T07:06:30.591Z,101089.59
2023-11-09T07:08:57.424Z,101094.63
2023-11-09T07:11:24.354Z,101105.13
2023-11-09T07:13:51.211Z,101116.56
2023-11-09T07:16:18.090Z,101115.72
2023-11-09T07:18:46.555Z,101111.03
2023-11-09T07:21:13.508Z,101127.69
2023-11-09T07:23:40.556Z,101131.03
2023-11-09T07:26:07.666Z,101122.53
2023-11-09T07:28:34.527Z,101121.69
2023-11-09T07:31:02.392Z,101117.84
2023-11-09T07:33:29.522Z,101124.56
2023-11-09T07:35:57.735Z,101126.84
2023-11-09T07:38:24.693Z,101126.66
2023-11-09T07:40:51.489Z,101118.28
2023-11-09T07:43:19.511Z,101120.63
2023-11-09T07:45:47.003Z,101123.91
2023-11-09T07:48:16.739Z,101128.25
2023-11-09T07:50:43.646Z,101128.88
2023-11-09T07:53:10.487Z,101129.94
2023-11-09T07:55:38.129Z,101125.88
2023-11-09T07:58:05.714Z,101131.66
2023-11-09T08:00:32.643Z,101131.44
2023-11-09T08:02:59.605Z,101131.25
2023-11-09T08:05:26.630Z,101133.41
2023-11-09T08:07:54.707Z,101143.69
2023-11-09T08:10:22.986Z,101138.16
2023-11-09T08:12:49.998Z,101138.63
2023-11-09T08:15:19.708Z,101133.34
2023-11-09T08:17:48.895Z,101138.88
2023-11-09T08:20:16.861Z,101134.44
2023-11-09T08:22:46.436Z,101148.25
2023-11-09T08:25:15.619Z,101156.47
2023-11-09T08:27:43.085Z,101147.69
2023-11-09T08:30:11.253Z,101147.69
2023-11-09T08:32:39.327Z,101155.53
2023-11-09T08:35:11.246Z,101154.88
2023-11-09T08:37:40.169Z,101157.06
2023-11-09T08:40:18.122Z,101150.22
2023-11-09T08:42:49.279Z,101148.34
2023-11-09T08:45:19.117Z,101145.50
2023-11-09T08:47:46.914Z,101139.28
2023-11-09T08:50:14.493Z,101133.31
2023-11-09T08:52:42.150Z,101132.31
2023-11-09T08:55:10.285Z,101133.31
2023-11-09T08:57:38.455Z,101144.28
2023-11-09T09:00:13.074Z,101135.28
2023-11-09T09:02:50.518Z,101131.00
2023-11-09T09:05:19.751Z,101135.47
2023-11-09T09:07:48.334Z,101136.16
2023-11-09T09:10:17.499Z,101132.28
2023-11-09T09:12:45.411Z,101131.91
2023-11-09T09:15:20.428Z,101133.56
2023-11-09T09:17:51.138Z,101134.69
2023-11-09T09:20:21.445Z,101127.28
2023-11-09T09:22:51.375Z,101133.50
2023-11-09T09:25:18.206Z,101132.34
2023-11-09T09:27:49.833Z,101128.91
2023-11-09T09:30:19.976Z,101123.53
2023-11-09T09:32:48.450Z,101128.09
2023-11-09T09:35:16.700Z,101126.63
2023-11-09T09:37:47.352Z,101130.72
2023-11-09T09:40:16.620Z,101131.22
2023-11-09T09:42:47.303Z,101129.16
2023-11-09T09:45:17.780Z,101127.47
2023-11-09T09:47:49.963Z,101129.75
2023-11-09T09:50:25.211Z,101124.06
2023-11-09T09:52:54.071Z,101130.03
2023-11-09T09:55:22.368Z,101117.53
2023-11-09T09:57:49.456Z,101118.81
2023-11-09T10:00:31.722Z,101126.34
2023-11-09T10:03:00.781Z,101125.78
2023-11-09T10:05:30.611Z,101126.22
2023-11-09T10:08:05.912Z,101123.34
2023-11-09T10:10:35.609Z,101130.78
2023-11-09T10:13:21.186Z,101133.47
2023-11-09T10:15:56.465Z,101136.75
2023-11-09T10:18:33.471Z,101141.31
2023-11-09T10:21:04.831Z,101142.53
2023-11-09T10:23:32.066Z,101131.38
2023-11-09T10:26:03.716Z,101140.88
2023-11-09T10:28:30.793Z,101142.13
2023-11-09T10:30:57.653Z,101139.03
2023-11-09T10:33:25.273Z,101147.94
2023-11-09T10:35:53.955Z,101154.09
2023-11-09T10:38:21.898Z,101147.50
2023-11-09T10:41:14.240Z,101155.34
2023-11-09T10:43:39.447Z,101152.47
2023-11-09T10:46:10.650Z,101153.91
2023-11-09T10:48:42.472Z,101156.59
2023-11-09T10:51:11.059Z,101145.06
2023-11-09T10:53:39.248Z,101150.22
2023-11-09T10:56:11.909Z,101148.53
2023-11-09T10:58:42.203Z,101141.13
2023-11-09T11:01:12.754Z,101131.44
2023-11-09T11:03:46.816Z,101136.38
2023-11-09T11:06:18.728Z,101131.63
2023-11-09T11:08:52.579Z,101129.16
2023-11-09T11:11:27.474Z,101123.16
2023-11-09T11:13:59.527Z,101128.75
2023-11-09T11:16:45.445Z,101125.84
2023-11-09T11:19:49.071Z,101123.16
2023-11-09T11:22:29.304Z,101124.41
2023-11-09T11:25:08.021Z,101126.03
2023-11-09T11:27:47.401Z,101113.06
2023-11-09T11:30:14.732Z,101118.00
2023-11-09T11:32:41.559Z,101118.63
2023-11-09T11:35:12.222Z,101121.09
2023-11-09T11:37:39.044Z,101129.16
2023-11-09T11:40:10.029Z,101119.88
2023-11-09T11:42:39.421Z,101119.88
2023-11-09T11:45:08.938Z,101110.75
2023-11-09T11:47:36.103Z,101114.06
2023-11-09T11:50:11.382Z,101109.13
2023-11-09T11:52:39.129Z,101100.25
2023-11-09T11:55:11.851Z,101095.50
2023-11-09T11:58:08.386Z,101089.91
2023-11-09T12:00:43.207Z,101088.06
2023-11-09T12:03:11.667Z,101099.63
2023-11-09T12:05:41.813Z,101092.59
2023-11-09T12:08:15.427Z,101086.22
2023-11-09T12:10:45.788Z,101081.06
2023-11-09T12:13:16.097Z,101070.91
2023-11-09T12:15:44.737Z,101077.50
2023-11-09T12:18:11.807Z,101067.22
2023-11-09T12:20:39.784Z,101060.34
2023-11-09T12:23:11.827Z,101048.69
2023-11-09T12:25:50.680Z,101053.19
2023-11-09T12:28:17.684Z,101048.78
2023-11-09T12:30:48.940Z,101049.09
2023-11-09T12:33:17.748Z,101052.75
2023-11-09T12:36:02.482Z,101054.75
2023-11-09T12:38:30.072Z,101053.06
2023-11-09T12:40:58.376Z,101055.09
2023-11-09T12:43:40.532Z,101059.09
2023-11-09T12:46:20.674Z,101051.66
2023-11-09T12:48:53.505Z,101061.88
2023-11-09T12:51:25.635Z,101056.16
2023-11-09T12:53:54.080Z,101054.13
2023-11-09T12:56:30.332Z,101050.44
2023-11-09T12:59:05.133Z,101051.03
2023-11-09T13:01:32.818Z,101051.91
2023-11-09T13:04:00.437Z,101053.34
2023-11-09T13:06:27.809Z,101053.78
2023-11-09T13:09:06.179Z,101057.31
2023-11-09T13:11:43.576Z,101066.19
2023-11-09T13:14:17.641Z,101068.06
2023-11-09T13:16:45.998Z,101073.00
2023-11-09T13:19:27.473Z,101075.69
2023-11-09T13:21:54.524Z,101081.88
2023-11-09T13:24:27.784Z,101093.03
2023-11-09T13:26:55.082Z,101082.66
2023-11-09T13:29:24.088Z,101079.63
2023-11-09T13:31:57.505Z,101081.44
2023-11-09T13:34:37.621Z,101082.25
2023-11-09T13:37:05.968Z,101081.44
2023-11-09T13:39:52.300Z,101073.75
2023-11-09T13:42:35.801Z,101079.34
2023-11-09T13:45:08.461Z,101078.09
2023-11-09T13:47:36.003Z,101074.78
2023-11-09T13:50:05.512Z,101072.50
2023-11-09T13:52:46.969Z,101071.84
2023-11-09T13:55:33.891Z,101073.94
2023-11-09T13:58:00.999Z,101082.22
2023-11-09T14:00:37.744Z,101089.41
2023-11-09T14:03:06.670Z,101091.88
2023-11-09T14:05:33.698Z,101078.88
2023-11-09T14:08:04.075Z,101071.16
2023-11-09T14:10:30.922Z,101058.56
2023-11-09T14:13:10.471Z,101065.09
2023-11-09T14:15:50.336Z,101082.03
2023-11-09T14:18:26.933Z,101098.09
2023-11-09T14:21:16.383Z,101095.63
2023-11-09T14:23:43.201Z,101097.47
2023-11-09T14:26:10.438Z,101100.16
2023-11-09T14:28:37.288Z,101105.31
2023-11-09T14:31:09.140Z,101102.00
2023-11-09T14:33:37.245Z,101104.06
2023-11-09T14:36:07.403Z,101096.00
2023-11-09T14:38:34.399Z,101091.00
2023-11-09T14:41:01.470Z,101095.38
2023-11-09T14:43:30.865Z,101084.41
2023-11-09T14:46:06.225Z,101094.78
2023-11-09T14:48:36.515Z,101109.50
2023-11-09T14:51:04.200Z,101113.00
2023-11-09T14:53:36.819Z,101110.75
2023-11-09T14:56:07.568Z,101116.53
2023-11-09T14:58:35.704Z,101124.88
2023-11-09T15:01:04.655Z,101133.81
2023-11-09T15:03:35.989Z,101136.28
2023-11-09T15:06:11.655Z,101147.88
2023-11-09T15:08:39.930Z,101152.44
2023-11-09T15:11:07.876Z,101150.41
2023-11-09T15:13:35.946Z,101156.63
2023-11-09T15:16:05.738Z,101157.66
2023-11-09T15:18:36.368Z,101152.09
2023-11-09T15:21:06.648Z,101156.44
2023-11-09T15:23:34.342Z,101153.91
2023-11-09T15:26:01.806Z,101159.50
2023-11-09T15:28:29.713Z,101160.94
2023-11-09T15:30:56.757Z,101150.84
2023-11-09T15:33:24.045Z,101149.78
2023-11-09T15:35:51.664Z,101148.38
2023-11-09T15:38:18.923Z,101153.94
2023-11-09T15:41:16.174Z,101154.56
2023-11-09T15:43:39.048Z,101151.28
2023-11-09T15:46:13.518Z,101157.47
2023-11-09T15:48:41.922Z,101158.47
2023-11-09T15:51:09.915Z,101164.25
2023-11-09T15:53:38.573Z,101166.13
2023-11-09T15:56:06.607Z,101172.75
2023-11-09T15:58:33.574Z,101178.91
2023-11-09T16:01:02.481Z,101169.00
2023-11-09T16:03:32.162Z,101179.53
2023-11-09T16:05:59.222Z,101181.63
2023-11-09T16:08:27.315Z,101180.75
2023-11-09T16:10:55.312Z,101176.25
2023-11-09T16:13:22.321Z,101175.59
2023-11-09T16:15:49.990Z,101179.94
2023-11-09T16:18:17.101Z,101180.16
2023-11-09T16:20:44.129Z,101172.72
2023-11-09T16:23:12.675Z,101175.81
2023-11-09T16:25:45.080Z,101178.91
2023-11-09T16:28:14.014Z,101192.72
2023-11-09T16:30:42.099Z,101190.03
2023-11-09T16:33:09.753Z,101185.88
2023-11-09T16:35:37.300Z,101184.41
2023-11-09T16:38:05.298Z,101180.47
2023-11-09T16:40:32.453Z,101179.03
2023-11-09T16:42:59.359Z,101178.38
2023-11-09T16:45:26.221Z,101177.56
2023-11-09T16:47:56.084Z,101181.00
2023-11-09T16:50:23.136Z,101172.75
2023-11-09T16:52:50.564Z,101181.25
2023-11-09T16:55:17.581Z,101180.66
2023-11-09T16:57:46.478Z,101188.50
2023-11-09T17:00:24.718Z,101192.03
2023-11-09T17:02:53.038Z,101205.63
2023-11-09T17:05:20.443Z,101203.97
2023-11-09T17:07:47.822Z,101201.06
2023-11-09T17:10:15.577Z,101202.28
2023-11-09T17:12:43.320Z,101213.00
2023-11-09T17:15:12.051Z,101212.19
2023-11-09T17:17:42.562Z,101211.97
2023-11-09T17:20:11.794Z,101223.13
2023-11-09T17:22:40.194Z,101222.00
2023-11-09T17:25:09.292Z,101228.56
2023-11-09T17:27:36.499Z,101228.38
2023-11-09T17:30:11.193Z,101241.16
2023-11-09T17:32:40.057Z,101242.59
2023-11-09T17:35:08.248Z,101254.56
2023-11-09T17:37:35.338Z,101264.22
2023-11-09T17:40:04.667Z,101259.94
2023-11-09T17:42:32.585Z,101270.00
2023-11-09T17:44:59.477Z,101265.03
2023-11-09T17:47:26.431Z,101268.94
2023-11-09T17:49:53.441Z,101274.50
2023-11-09T17:52:20.691Z,101279.84
2023-11-09T17:54:47.600Z,101283.75
2023-11-09T17:57:14.827Z,101283.09
2023-11-09T17:59:44.751Z,101283.72
2023-11-09T18:02:13.323Z,101294.44
2023-11-09T18:04:41.929Z,101299.16
2023-11-09T18:07:09.577Z,101298.72
2023-11-09T18:09:38.680Z,101297.66
2023-11-09T18:12:06.160Z,101300.94
2023-11-09T18:14:33.952Z,101301.16
2023-11-09T18:17:02.441Z,101301.34
2023-11-09T18:19:29.361Z,101303.19
2023-11-09T18:21:58.659Z,101305.88
2023-11-09T18:24:25.656Z,101306.69
2023-11-09T18:26:52.493Z,101292.44
2023-11-09T18:29:20.363Z,101296.91
2023-11-09T18:31:47.357Z,101295.19
2023-11-09T18:34:14.180Z,101294.50
2023-11-09T18:36:40.954Z,101286.91
2023-11-09T18:39:07.736Z,101280.53
2023-11-09T18:41:35.165Z,101276.66
2023-11-09T18:44:02.903Z,101275.81
2023-11-09T18:46:31.661Z,101283.47
2023-11-09T18:48:58.522Z,101290.28
2023-11-09T18:51:28.536Z,101286.59
2023-11-09T18:53:55.462Z,101289.09
2023-11-09T18:56:22.472Z,101282.59
2023-11-09T18:58:49.339Z,101279.91
2023-11-09T19:01:16.325Z,101279.47
2023-11-09T19:06:14.840Z,101273.91
2023-11-09T19:08:41.720Z,101281.75
2023-11-09T19:11:13.377Z,101269.19
2023-11-09T19:13:40.329Z,101273.69
2023-11-09T19:16:07.675Z,101271.16
2023-11-09T19:18:35.369Z,101265.00
2023-11-09T19:23:32.210Z,101256.97
2023-11-09T19:25:59.297Z,101251.41
2023-11-09T19:28:28.897Z,101246.91
2023-11-09T19:30:59.724Z,101248.13
2023-11-09T19:33:27.272Z,101248.47
2023-11-09T19:35:54.779Z,101233.06
2023-11-09T19:38:21.811Z,101234.72
2023-11-09T19:40:49.614Z,101238.03
2023-11-09T19:43:16.800Z,101234.34
2023-11-09T19:45:45.270Z,101236.34
2023-11-09T19:48:13.827Z,101243.38
2023-11-09T19:50:42.267Z,101255.94
2023-11-09T19:53:12.268Z,101257.78
2023-11-09T19:55:39.213Z,101247.25
2023-11-09T19:58:06.591Z,101242.06
2023-11-09T20:00:36.620Z,101254.63
2023-11-09T20:03:07.534Z,101263.66
2023-11-09T20:05:35.935Z,101267.34
2023-11-09T20:08:03.485Z,101262.38
2023-11-09T20:10:33.536Z,101266.47
2023-11-09T20:13:03.221Z,101279.50
2023-11-09T20:15:32.467Z,101278.38
2023-11-09T20:18:01.306Z,101279.16
2023-11-09T20:20:30.080Z,101285.31
2023-11-09T20:23:00.306Z,101288.84
2023-11-09T20:25:27.452Z,101282.84
2023-11-09T20:27:57.323Z,101275.78
2023-11-09T20:30:24.325Z,101277.06
2023-11-09T20:32:51.606Z,101273.63
2023-11-09T20:35:18.783Z,101277.97
2023-11-09T20:37:45.958Z,101281.13
2023-11-09T20:40:16.778Z,101289.16
2023-11-09T20:42:44.565Z,101292.13
2023-11-09T20:45:11.801Z,101283.31
2023-11-09T20:47:38.997Z,101280.78
2023-11-09T20:50:08.746Z,101284.91
2023-11-09T20:52:35.631Z,101273.63
2023-11-09T20:55:02.641Z,101272.44
2023-11-09T20:57:30.662Z,101259.91
2023-11-09T21:00:01.704Z,101262.72
2023-11-09T21:02:31.611Z,101270.75
2023-11-09T21:04:58.574Z,101269.69
2023-11-09T21:07:25.382Z,101278.38
2023-11-09T21:09:52.330Z,101284.53
2023-11-09T21:12:21.607Z,101274.66
2023-11-09T21:14:51.945Z,101268.03
2023-11-09T21:17:18.802Z,101261.09
2023-11-09T21:19:45.636Z,101250.41
2023-11-09T21:22:14.467Z,101248.34
2023-11-09T21:24:41.645Z,101257.06
2023-11-09T21:27:15.784Z,101259.72
2023-11-09T21:29:45.883Z,101265.09
2023-11-09T21:32:12.875Z,101269.13
2023-11-09T21:34:41.313Z,101262.63
2023-11-09T21:37:09.539Z,101255.59
2023-11-09T21:39:39.550Z,101267.13
2023-11-09T21:42:11.953Z,101261.56
2023-11-09T21:44:39.394Z,101261.25
2023-11-09T21:47:06.626Z,101254.97
2023-11-09T21:49:35.775Z,101248.41
2023-11-09T21:52:04.526Z,101257.28
2023-11-09T21:54:31.350Z,101260.94
2023-11-09T21:57:02.134Z,101254.78
2023-11-09T21:59:30.580Z,101253.94
2023-11-09T22:01:57.768Z,101251.84
2023-11-09T22:04:24.890Z,101253.50
2023-11-09T22:06:54.205Z,101252.31
2023-11-09T22:09:24.593Z,101248.59
2023-11-09T22:11:51.972Z,101249.78
2023-11-09T22:14:21.470Z,101239.47
2023-11-09T22:16:48.299Z,101231.38
2023-11-09T22:19:15.201Z,101225.72
2023-11-09T22:21:42.064Z,101225.16
2023-11-09T22:24:11.641Z,101222.19
2023-11-09T22:26:40.166Z,101212.72
2023-11-09T22:29:07.454Z,101216.22
2023-11-09T22:31:34.423Z,101209.47
2023-11-09T22:34:01.510Z,101204.56
2023-11-09T22:36:28.425Z,101195.13
2023-11-09T22:38:55.292Z,101180.56
2023-11-09T22:41:25.169Z,101180.19
2023-11-09T22:43:52.015Z,101177.97
2023-11-09T22:46:19.002Z,101178.81
2023-11-09T22:48:46.166Z,101180.81
2023-11-09T22:51:13.208Z,101183.97
2023-11-09T22:53:40.164Z,101189.72
2023-11-09T22:56:07.554Z,101189.72
2023-11-09T22:58:34.595Z,101184.38
2023-11-09T23:01:04.995Z,101180.88
2023-11-09T23:03:33.358Z,101186.44
2023-11-09T23:06:01.321Z,101191.78
2023-11-09T23:08:28.398Z,101189.50
2023-11-09T23:10:55.265Z,101184.09
2023-11-09T23:13:22.101Z,101184.72
2023-11-09T23:15:48.969Z,101173.94
2023-11-09T23:18:16.428Z,101171.66
2023-11-09T23:20:45.197Z,101167.97
2023-11-09T23:23:13.131Z,101179.25
2023-11-09T23:25:40.282Z,101170.56
2023-11-09T23:28:07.297Z,101173.69
2023-11-09T23:30:34.270Z,101173.69
2023-11-09T23:33:01.229Z,101186.88
2023-11-09T23:35:29.746Z,101183.16
2023-11-09T23:37:57.232Z,101185.03
2023-11-09T23:40:24.114Z,101184.59
2023-11-09T23:42:51.579Z,101175.97
2023-11-09T23:45:19.065Z,101178.84
2023-11-09T23:47:46.613Z,101159.28
2023-11-09T23:50:13.722Z,101166.16
2023-11-09T23:52:41.267Z,101173.63
2023-11-09T23:55:08.620Z,101168.72
2023-11-09T23:57:35.959Z,101166.22
